Time;durP1;ratioP1;P1;durP2;ratioP2;P2;SDS_P1;SDS_P2;PMS_P1;PMS_P2;Temp;Humidity;BMP_temperature;BMP_pressure;BME280_temperature;BME280_humidity;BME280_pressure;Samples;Min_cycle;Max_cycle;Signal;HPM_P1;HPM_P2
2022/08/22 00:02:58;;;;;;;59.30;31.73;;;;;;;18.94;40.12;100671.28;4805261;29;20049;-78
2022/08/22 00:05:36;;;;;;;55.60;32.10;;;;;;;18.94;39.90;100679.19;4786524;29;20046;-77
2022/08/22 00:08:09;;;;;;;56.15;31.65;;;;;;;18.94;40.08;100673.91;4799269;29;20125;-77
2022/08/22 00:11:02;;;;;;;56.20;35.13;;;;;;;18.88;39.95;100671.44;4805505;29;20458;-76
2022/08/22 00:13:54;;;;;;;60.60;33.47;;;;;;;18.80;40.34;100657.66;4808053;29;20114;-75
2022/08/22 00:16:39;;;;;;;61.13;34.17;;;;;;;18.88;40.36;100667.97;4817614;29;20168;-76
2022/08/22 00:19:17;;;;;;;61.75;33.83;;;;;;;18.88;40.18;100667.97;4823601;29;20416;-77
2022/08/22 00:21:58;;;;;;;58.00;33.75;;;;;;;18.86;40.34;100678.56;4792521;29;20055;-77
2022/08/22 00:24:46;;;;;;;62.28;35.60;;;;;;;18.82;40.51;100667.22;4823701;29;20051;-75
2022/08/22 00:27:18;;;;;;;66.07;35.15;;;;;;;18.81;40.65;100672.56;4822826;29;20062;-76
2022/08/22 00:30:10;;;;;;;62.45;36.13;;;;;;;18.77;40.63;100671.75;4821655;29;20047;-74
2022/08/22 00:32:41;;;;;;;;;;;;;;;18.78;40.67;100678.75;4786274;29;20058;-76
2022/08/22 00:35:39;;;;;;;58.92;37.13;;;;;;;18.76;40.49;100670.03;4795761;29;19921;-78
2022/08/22 00:38:18;;;;;;;69.35;40.20;;;;;;;18.77;40.55;100671.75;4794977;29;20063;-76
2022/08/22 00:40:52;;;;;;;64.85;39.30;;;;;;;18.74;40.68;100674.53;4811089;29;20067;-75
2022/08/22 00:43:24;;;;;;;62.38;39.35;;;;;;;18.74;40.54;100678.91;4820914;29;20154;-75
2022/08/22 00:46:18;;;;;;;67.22;40.50;;;;;;;18.78;40.71;100672.66;4792330;29;20051;-76
2022/08/22 00:49:10;;;;;;;64.95;42.05;;;;;;;18.80;40.75;100665.56;4815827;29;20181;-78
2022/08/22 00:51:36;;;;;;;;;;;;;;;18.81;40.64;100662.88;4817718;29;20054;-76
2022/08/22 00:54:23;;;;;;;71.20;41.80;;;;;;;18.76;40.58;100667.41;4790754;29;20192;-77
2022/08/22 00:56:58;;;;;;;72.00;43.25;;;;;;;18.82;40.75;100684.84;4817320;29;20051;-76
2022/08/22 00:59:35;;;;;;;71.57;43.63;;;;;;;18.84;40.88;100672.47;4819818;29;20051;-78
2022/08/22 01:02:39;;;;;;;76.20;45.28;;;;;;;18.85;40.64;100683.88;4794467;29;20043;-76
2022/08/22 01:05:21;;;;;;;65.10;43.20;;;;;;;18.86;40.84;100711.97;4811641;29;20722;-76
2022/08/22 01:07:54;;;;;;;;;;;;;;;18.88;40.93;100711.00;4811617;29;20107;-75
2022/08/22 01:10:44;;;;;;;54.50;34.65;;;;;;;18.79;41.09;100709.50;4811050;29;19925;-78
2022/08/22 01:13:35;;;;;;;62.78;39.00;;;;;;;18.72;41.82;100709.72;4792002;29;20050;-78
2022/08/22 01:16:44;;;;;;;56.53;38.07;;;;;;;18.56;42.74;100709.28;4811842;29;20062;-76
2022/08/22 01:19:28;;;;;;;56.33;36.60;;;;;;;18.51;43.53;100701.50;4783358;29;20395;-78
2022/08/22 01:22:15;;;;;;;51.65;34.42;;;;;;;18.51;43.85;100698.88;4783057;29;20578;-79
2022/08/22 01:25:17;;;;;;;56.63;35.22;;;;;;;18.52;44.27;100693.56;4802681;29;20047;-76
2022/08/22 01:28:11;;;;;;;54.33;36.35;;;;;;;18.54;44.98;100698.78;4786675;29;20228;-76
2022/08/22 01:31:10;;;;;;;57.03;35.55;;;;;;;18.49;46.03;100698.06;4799564;29;20056;-77
2022/08/22 01:34:03;;;;;;;54.63;35.33;;;;;;;18.45;46.57;100697.28;4785971;29;20141;-77
2022/08/22 01:36:50;;;;;;;62.67;40.03;;;;;;;18.45;46.26;100693.75;4821031;29;20047;-75
2022/08/22 01:39:38;;;;;;;64.07;38.92;;;;;;;18.45;45.91;100702.53;4786226;29;20051;-77
2022/08/22 01:42:04;;;;;;;65.43;41.05;;;;;;;18.45;45.34;100688.50;4814582;29;20053;-78
2022/08/22 01:44:57;;;;;;;66.47;40.67;;;;;;;18.43;45.67;100678.00;4800512;29;20042;-77
2022/08/22 01:47:42;;;;;;;57.40;38.13;;;;;;;18.49;46.04;100683.13;4796325;29;20051;-77
2022/08/22 01:50:30;;;;;;;63.88;42.28;;;;;;;18.59;46.37;100693.38;4786004;29;20059;-75
2022/08/22 01:52:58;;;;;;;63.95;41.45;;;;;;;18.60;46.65;100689.84;4784632;29;20058;-79
2022/08/22 01:55:52;;;;;;;57.28;38.35;;;;;;;18.58;46.69;100678.47;4785141;29;20047;-76
2022/08/22 01:58:25;;;;;;;58.10;39.38;;;;;;;18.63;47.49;100693.28;4785794;29;20084;-77
2022/08/22 02:01:21;;;;;;;61.13;39.70;;;;;;;18.61;48.24;100692.44;4802565;29;20050;-77
2022/08/22 02:03:54;;;;;;;60.97;40.40;;;;;;;18.58;49.31;100696.94;4818481;29;20133;-77
2022/08/22 02:06:42;;;;;;;71.85;48.90;;;;;;;18.50;50.00;100689.25;4799103;29;20138;-77
2022/08/22 02:09:27;;;;;;;83.88;47.75;;;;;;;18.46;49.70;100679.69;4799279;29;20043;-77
2022/08/22 02:12:40;;;;;;;74.95;47.00;;;;;;;18.52;49.02;100682.16;4785357;29;20047;-79
2022/08/22 02:15:13;;;;;;;88.05;50.10;;;;;;;18.55;48.41;100684.72;4779178;29;20059;-77
2022/08/22 02:17:53;;;;;;;82.15;53.45;;;;;;;18.56;48.52;100693.47;4795035;29;20070;-75
2022/08/22 02:20:29;;;;;;;79.57;50.25;;;;;;;18.21;48.07;100628.56;4811282;29;20054;-77
2022/08/22 02:23:05;;;;;;;89.53;54.50;;;;;;;18.59;47.95;100690.75;4812399;29;20112;-76
2022/08/22 02:25:50;;;;;;;88.45;54.67;;;;;;;18.59;47.97;100678.44;4815100;29;20047;-76
2022/08/22 02:28:29;;;;;;;83.15;52.42;;;;;;;18.49;47.97;100664.69;4800811;29;20453;-75
2022/08/22 02:31:10;;;;;;;88.45;56.13;;;;;;;18.61;48.10;100681.03;4785341;29;20043;-78
2022/08/22 02:33:37;;;;;;;93.63;57.67;;;;;;;18.60;47.92;100684.56;4823204;29;20043;-76
2022/08/22 02:36:21;;;;;;;98.22;59.88;;;;;;;18.56;48.03;100683.81;4793839;29;20059;-76
2022/08/22 02:39:02;;;;;;;86.45;56.72;;;;;;;18.53;47.76;100683.88;4813971;29;20496;-77
2022/08/22 02:42:00;;;;;;;83.72;53.33;;;;;;;18.56;48.38;100681.16;4787768;29;20053;-76
2022/08/22 02:44:40;;;;;;;82.38;49.03;;;;;;;18.48;48.84;100669.97;4816948;29;20727;-75
2022/08/22 02:47:11;;;;;;;96.82;56.47;;;;;;;18.32;49.43;100662.50;4813936;29;20079;-77
2022/08/22 02:49:37;;;;;;;;;;;;;;;18.31;49.55;100686.25;4783475;29;20134;-76
2022/08/22 02:52:09;;;;;;;89.47;54.72;;;;;;;18.29;49.72;100688.06;4782635;29;20017;-77
2022/08/22 02:55:04;;;;;;;93.45;55.55;;;;;;;18.26;49.38;100685.50;4813197;29;20054;-77
2022/08/22 02:58:03;;;;;;;90.15;56.08;;;;;;;18.25;49.40;100684.63;4763703;29;20066;-78
2022/08/22 03:00:51;;;;;;;93.22;55.03;;;;;;;18.19;49.43;100669.88;4753062;29;20524;-78
2022/08/22 03:03:30;;;;;;;97.95;56.38;;;;;;;18.28;48.88;100681.06;4813086;29;20043;-76
2022/08/22 03:05:58;;;;;;;88.65;54.80;;;;;;;18.29;48.74;100691.56;4783861;29;20047;-76
2022/08/22 03:08:38;;;;;;;86.75;55.75;;;;;;;18.23;48.60;100685.59;4782697;29;20079;-78
2022/08/22 03:11:14;;;;;;;92.43;57.03;;;;;;;18.25;48.82;100695.16;4783343;29;20078;-78
2022/08/22 03:13:46;;;;;;;87.43;56.28;;;;;;;18.27;48.58;100701.25;4783409;29;20043;-79
2022/08/22 03:16:21;;;;;;;83.55;54.90;;;;;;;18.28;48.81;100699.50;4797322;29;20116;-78
2022/08/22 03:19:02;;;;;;;90.82;54.05;;;;;;;18.34;48.75;100699.31;4814269;29;20444;-77
2022/08/22 03:21:36;;;;;;;86.57;54.30;;;;;;;18.35;48.10;100701.06;4782546;29;20042;-78
2022/08/22 03:24:15;;;;;;;87.22;55.58;;;;;;;18.39;47.99;100709.75;4783291;29;20047;-78
2022/08/22 03:26:49;;;;;;;96.22;55.25;;;;;;;18.40;47.34;100703.59;4811469;29;20113;-79
2022/08/22 03:29:35;;;;;;;92.22;56.03;;;;;;;18.42;47.00;100704.41;4796176;29;20051;-76
2022/08/22 03:32:11;;;;;;;81.82;55.08;;;;;;;18.39;47.09;100699.22;4796783;29;20127;-78
2022/08/22 03:35:01;;;;;;;86.13;55.05;;;;;;;18.49;46.57;100703.31;4796042;29;20053;-78
2022/08/22 03:37:43;;;;;;;87.68;54.28;;;;;;;18.56;46.57;100707.53;4791796;29;20119;-77
2022/08/22 03:40:19;;;;;;;91.47;53.28;;;;;;;18.56;46.66;100702.25;4811780;29;20141;-78
2022/08/22 03:42:57;;;;;;;86.57;53.80;;;;;;;18.57;46.63;100695.19;4796748;29;20054;-77
2022/08/22 03:45:57;;;;;;;93.67;53.73;;;;;;;18.59;46.39;100704.81;4810812;29;20054;-78
2022/08/22 03:49:07;;;;;;;91.40;55.95;;;;;;;18.64;46.40;100702.91;4810950;29;20845;-78
2022/08/22 03:51:51;;;;;;;89.50;53.70;;;;;;;18.81;46.27;100707.69;4766635;29;20036;-78
2022/08/22 03:54:55;;;;;;;89.32;59.30;;;;;;;18.95;46.14;100702.03;4783064;29;20047;-78
2022/08/22 03:57:49;;;;;;;91.93;59.67;;;;;;;19.07;45.83;100702.59;4777326;29;20059;-77
2022/08/22 04:00:18;;;;;;;98.90;59.42;;;;;;;19.15;45.77;100699.72;4795277;29;20068;-76
2022/08/22 04:03:06;;;;;;;88.20;59.95;;;;;;;19.29;45.64;100704.59;4784679;29;20171;-77
2022/08/22 04:05:50;;;;;;;94.25;58.83;;;;;;;19.29;45.30;100708.06;4781603;29;20513;-77
2022/08/22 04:08:52;;;;;;;90.20;57.85;;;;;;;19.34;45.67;100707.94;4782905;29;20487;-77
2022/08/22 04:11:47;;;;;;;91.80;57.88;;;;;;;19.39;45.66;100706.91;4788851;29;20445;-77
2022/08/22 04:14:28;;;;;;;87.88;59.47;;;;;;;19.40;45.30;100711.25;4815718;29;20085;-76
2022/08/22 04:17:19;;;;;;;92.00;58.97;;;;;;;19.44;45.10;100709.38;4798483;29;20051;-76
2022/08/22 04:19:54;;;;;;;88.88;59.45;;;;;;;19.51;44.71;100703.00;4782754;29;20050;-76
2022/08/22 04:22:48;;;;;;;92.88;60.58;;;;;;;19.58;44.95;100706.31;4811736;29;20408;-76
2022/08/22 04:25:25;;;;;;;91.32;59.85;;;;;;;19.63;44.53;100692.94;4796387;29;20055;-77
2022/08/22 04:28:02;;;;;;;87.80;58.67;;;;;;;19.78;44.04;100703.00;4811789;29;20085;-78
2022/08/22 04:30:46;;;;;;;88.30;58.70;;;;;;;19.91;43.86;100686.78;4812378;29;20203;-77
2022/08/22 04:33:21;;;;;;;86.53;58.38;;;;;;;20.07;43.77;100695.91;4782313;29;20513;-76
2022/08/22 04:36:12;;;;;;;93.88;59.95;;;;;;;20.45;43.34;100701.63;4783211;29;20059;-75
2022/08/22 04:38:38;;;;;;;90.85;58.85;;;;;;;20.69;42.48;100698.16;4811610;29;20047;-77
2022/08/22 04:41:36;;;;;;;95.68;59.75;;;;;;;20.73;42.32;100692.69;4810958;29;20704;-77
2022/08/22 04:44:13;;;;;;;88.22;60.63;;;;;;;20.83;42.10;100695.88;4763004;29;20050;-79
2022/08/22 04:46:48;;;;;;;90.78;61.15;;;;;;;21.03;41.80;100699.56;4822479;29;20401;-77
2022/08/22 04:49:17;;;;;;;89.57;59.28;;;;;;;21.08;42.01;100702.91;4795644;29;20054;-77
2022/08/22 04:51:53;;;;;;;86.20;58.30;;;;;;;21.23;41.71;100698.78;4793289;29;20113;-77
2022/08/22 04:54:29;;;;;;;94.55;60.05;;;;;;;21.41;41.96;100701.63;4793543;29;20110;-75
2022/08/22 04:57:21;;;;;;;85.25;58.53;;;;;;;21.56;41.17;100700.16;4794615;29;20527;-76
2022/08/22 04:59:48;;;;;;;86.55;56.03;;;;;;;21.78;40.83;100692.22;4812791;29;20055;-75
2022/08/22 05:02:26;;;;;;;93.05;58.13;;;;;;;21.84;40.54;100696.41;4782998;29;20412;-76
2022/08/22 05:05:16;;;;;;;81.15;56.90;;;;;;;21.93;40.86;100682.75;4811238;29;20047;-77
2022/08/22 05:07:52;;;;;;;83.93;56.25;;;;;;;22.02;40.42;100689.47;4794138;29;20444;-75
2022/08/22 05:10:21;;;;;;;80.82;53.20;;;;;;;22.10;41.13;100695.31;4816537;29;20051;-74
2022/08/22 05:13:01;;;;;;;75.38;53.95;;;;;;;22.29;40.22;100691.84;4807310;29;20066;-78
2022/08/22 05:15:34;;;;;;;75.57;50.65;;;;;;;22.58;39.58;100677.31;4816086;29;20436;-77
2022/08/22 05:18:09;;;;;;;75.57;48.60;;;;;;;22.65;39.32;100678.78;4821229;29;20047;-76
2022/08/22 05:20:38;;;;;;;72.22;48.45;;;;;;;22.56;39.27;100685.34;4790722;29;20085;-75
2022/08/22 05:23:13;;;;;;;69.45;48.60;;;;;;;22.49;39.70;100678.59;4814018;29;20055;-79
2022/08/22 05:25:42;;;;;;;69.65;49.40;;;;;;;22.70;39.11;100668.81;4812847;29;20161;-75
2022/08/22 05:28:37;;;;;;;76.10;49.53;;;;;;;22.75;38.71;100681.88;4783954;29;20062;-75
2022/08/22 05:31:13;;;;;;;75.75;52.22;;;;;;;22.64;39.01;100671.75;4785555;29;20118;-78
2022/08/22 05:33:46;;;;;;;70.22;48.28;;;;;;;22.82;38.90;100680.66;4791891;29;20085;-76
2022/08/22 05:36:27;;;;;;;72.05;52.05;;;;;;;23.03;38.82;100683.25;4788293;29;20043;-75
2022/08/22 05:38:59;;;;;;;78.20;52.10;;;;;;;23.13;38.40;100684.50;4803488;29;20043;-78
2022/08/22 05:41:30;;;;;;;70.32;48.90;;;;;;;22.98;38.56;100680.78;4782354;29;20047;-76
2022/08/22 05:43:57;;;;;;;75.97;52.97;;;;;;;22.83;38.29;100679.72;4812239;29;20086;-77
2022/08/22 05:46:45;;;;;;;72.10;50.90;;;;;;;22.94;38.49;100691.63;4786727;29;20063;-75
2022/08/22 05:49:24;;;;;;;73.95;51.80;;;;;;;23.00;38.40;100667.47;4816178;29;20043;-76
2022/08/22 05:52:35;;;;;;;82.20;53.05;;;;;;;23.22;37.75;100687.69;4796265;29;20051;-76
2022/08/22 05:55:32;;;;;;;78.60;53.30;;;;;;;23.22;37.84;100685.03;4765706;29;20063;-76
2022/08/22 05:58:25;;;;;;;83.00;53.33;;;;;;;23.90;38.02;100679.91;4779501;29;20125;-79
2022/08/22 06:01:05;;;;;;;79.18;52.95;;;;;;;25.12;35.96;100674.41;4782178;29;20055;-78
2022/08/22 06:03:39;;;;;;;82.10;56.50;;;;;;;25.47;35.01;100663.59;4782490;29;20043;-77
2022/08/22 06:06:15;;;;;;;80.80;54.58;;;;;;;25.45;35.29;100665.50;4810686;29;20054;-77
2022/08/22 06:08:48;;;;;;;82.15;57.65;;;;;;;25.32;34.88;100665.31;4782296;29;20047;-77
2022/08/22 06:11:24;;;;;;;80.18;56.75;;;;;;;25.35;34.79;100667.81;4784953;29;20119;-79
2022/08/22 06:13:57;;;;;;;83.88;57.03;;;;;;;25.48;34.97;100678.66;4815272;29;20131;-77
2022/08/22 06:16:45;;;;;;;78.43;56.05;;;;;;;25.66;33.76;100671.38;4783578;29;20067;-77
2022/08/22 06:19:18;;;;;;;80.28;56.55;;;;;;;25.75;34.25;100664.63;4810369;29;20043;-77
2022/08/22 06:21:51;;;;;;;82.00;58.80;;;;;;;25.73;35.00;100674.53;4784288;29;20069;-78
2022/08/22 06:24:26;;;;;;;86.82;58.33;;;;;;;25.77;34.66;100672.56;4814167;29;20412;-80
2022/08/22 06:27:01;;;;;;;79.47;56.65;;;;;;;25.68;34.20;100676.63;4797196;29;20057;-78
2022/08/22 06:30:06;;;;;;;89.65;59.53;;;;;;;25.67;34.34;100682.91;4813358;29;20662;-77
2022/08/22 06:32:44;;;;;;;81.53;57.35;;;;;;;25.86;33.75;100672.88;4766776;29;20108;-77
2022/08/22 06:35:22;;;;;;;82.38;59.15;;;;;;;26.59;33.71;100667.66;4767993;29;20057;-78
2022/08/22 06:37:49;;;;;;;82.82;59.80;;;;;;;27.73;32.74;100679.94;4796412;29;20103;-76
2022/08/22 06:40:16;;;;;;;83.70;60.60;;;;;;;29.01;31.01;100673.75;4797744;29;20051;-77
2022/08/22 06:42:49;;;;;;;81.78;57.53;;;;;;;29.76;29.41;100676.34;4790615;29;20842;-77
2022/08/22 06:45:28;;;;;;;79.55;58.67;;;;;;;29.90;29.46;100651.13;4813226;29;20062;-78
2022/08/22 06:48:11;;;;;;;78.10;55.95;;;;;;;30.63;28.53;100667.81;4808560;29;20068;-76
2022/08/22 06:50:47;;;;;;;76.63;55.03;;;;;;;31.53;27.78;100665.91;4812754;29;20076;-80
2022/08/22 06:53:24;;;;;;;72.07;52.75;;;;;;;32.18;27.03;100664.97;4812965;29;20044;-77
2022/08/22 06:55:53;;;;;;;74.40;55.30;;;;;;;32.11;25.77;100680.75;4799247;29;20052;-77
2022/08/22 06:58:32;;;;;;;78.82;53.97;;;;;;;32.59;25.73;100683.88;4784210;29;20051;-78
2022/08/22 07:01:05;;;;;;;68.13;50.15;;;;;;;32.99;25.47;100669.53;4784101;29;20047;-77
2022/08/22 07:03:57;;;;;;;69.00;52.20;;;;;;;33.67;24.50;100672.44;4795966;29;20044;-77
2022/08/22 07:06:30;;;;;;;71.05;52.53;;;;;;;33.81;23.77;100669.31;4795569;29;20169;-80
2022/08/22 07:09:16;;;;;;;66.78;50.47;;;;;;;34.06;23.99;100667.84;4814053;29;20048;-78
2022/08/22 07:11:46;;;;;;;62.47;50.20;;;;;;;34.74;23.47;100681.25;4782908;29;20100;-79
2022/08/22 07:14:44;;;;;;;67.93;50.60;;;;;;;35.15;21.96;100676.34;4784037;29;20116;-79
2022/08/22 07:17:20;;;;;;;64.93;49.75;;;;;;;35.65;21.63;100685.75;4781768;29;20072;-80
2022/08/22 07:19:56;;;;;;;62.30;49.15;;;;;;;36.41;20.75;100677.16;4810412;29;20150;-77
2022/08/22 07:22:29;;;;;;;62.92;48.05;;;;;;;36.84;20.43;100682.59;4778679;29;20054;-79
2022/08/22 07:25:10;;;;;;;57.13;46.38;;;;;;;37.17;20.33;100685.41;4797816;29;20043;-79
2022/08/22 07:27:52;;;;;;;55.95;47.10;;;;;;;37.64;19.15;100686.66;4781355;29;20187;-79
2022/08/22 07:30:21;;;;;;;59.05;46.78;;;;;;;36.51;20.00;100683.34;4784023;29;20142;-78
2022/08/22 07:32:53;;;;;;;59.88;45.55;;;;;;;36.50;20.91;100681.63;4786242;29;20047;-80
2022/08/22 07:35:30;;;;;;;57.90;46.53;;;;;;;36.71;20.12;100675.78;4786136;29;20047;-78
2022/08/22 07:38:15;;;;;;;53.95;45.08;;;;;;;37.42;19.94;100685.44;4786731;29;20078;-79
2022/08/22 07:40:53;;;;;;;51.83;43.70;;;;;;;38.32;19.37;100683.69;4786114;29;20108;-79
2022/08/22 07:43:31;;;;;;;55.70;45.00;;;;;;;38.53;19.08;100681.25;4789644;29;20043;-77
2022/08/22 07:46:34;;;;;;;55.08;45.63;;;;;;;38.18;18.58;100674.38;4799165;29;20043;-78
2022/08/22 07:49:20;;;;;;;55.30;42.72;;;;;;;37.23;18.98;100682.03;4814275;29;20039;-78
2022/08/22 07:52:01;;;;;;;56.28;45.60;;;;;;;36.65;19.73;100686.44;4794723;29;20127;-79
2022/08/22 07:54:47;;;;;;;50.70;42.38;;;;;;;37.36;19.81;100665.28;4788551;29;20046;-79
2022/08/22 07:57:23;;;;;;;58.05;44.33;;;;;;;38.21;18.80;100672.16;4789071;29;20047;-79
2022/08/22 07:59:55;;;;;;;54.58;44.58;;;;;;;38.85;18.34;100671.25;4783708;29;20043;-82
2022/08/22 08:02:28;;;;;;;55.80;46.00;;;;;;;39.33;17.53;100669.44;4783013;29;20143;-79
2022/08/22 08:04:59;;;;;;;55.22;45.38;;;;;;;39.28;17.48;100673.53;4812852;29;20068;-78
2022/08/22 08:07:31;;;;;;;51.05;44.88;;;;;;;40.38;17.43;100667.75;4812030;29;20055;-79
2022/08/22 08:10:05;;;;;;;54.75;45.03;;;;;;;40.95;15.48;100678.91;4782630;29;20043;-76
2022/08/22 08:12:40;;;;;;;51.45;44.00;;;;;;;40.79;16.49;100669.94;4810235;29;20050;-80
2022/08/22 08:15:17;;;;;;;52.90;43.22;;;;;;;41.33;16.26;100672.41;4805886;29;20163;-76
2022/08/22 08:18:18;;;;;;;51.22;41.20;;;;;;;42.07;15.54;100670.28;4812065;29;20491;-78
2022/08/22 08:20:50;;;;;;;51.35;44.53;;;;;;;41.64;15.47;100676.69;4808630;29;20093;-78
2022/08/22 08:23:18;;;;;;;51.65;45.38;;;;;;;42.92;14.46;100672.78;4799628;29;20057;-78
2022/08/22 08:25:54;;;;;;;57.58;46.25;;;;;;;42.81;14.71;100667.94;4808324;29;20043;-78
2022/08/22 08:28:33;;;;;;;50.65;45.08;;;;;;;41.60;14.99;100662.56;4799027;29;20046;-77
2022/08/22 08:31:19;;;;;;;51.73;44.00;;;;;;;41.08;16.11;100670.94;4796621;29;20051;-77
2022/08/22 08:33:48;;;;;;;57.20;48.08;;;;;;;40.40;15.71;100676.59;4816341;29;20109;-78
2022/08/22 08:36:36;;;;;;;56.17;48.33;;;;;;;40.04;16.58;100669.16;4784783;29;20043;-77
2022/08/22 08:39:26;;;;;;;52.90;44.63;;;;;;;40.53;16.07;100677.78;4795319;29;20043;-78
2022/08/22 08:42:13;;;;;;;57.95;47.13;;;;;;;40.33;16.41;100673.78;4813347;29;20492;-76
2022/08/22 08:45:27;;;;;;;55.45;47.30;;;;;;;40.74;16.01;100669.69;4814640;29;20167;-77
2022/08/22 08:48:18;;;;;;;56.08;44.88;;;;;;;41.45;15.94;100670.00;4795129;29;20054;-76
2022/08/22 08:51:12;;;;;;;54.53;45.45;;;;;;;42.26;14.68;100666.81;4790701;29;20051;-77
2022/08/22 08:54:09;;;;;;;53.88;47.15;;;;;;;42.62;14.46;100675.00;4793615;29;20051;-78
2022/08/22 08:57:01;;;;;;;59.30;51.55;;;;;;;41.75;14.36;100670.66;4824111;29;20110;-76
2022/08/22 09:00:00;;;;;;;62.70;50.20;;;;;;;40.46;15.86;100675.84;4786678;29;20599;-76
2022/08/22 09:02:49;;;;;;;59.72;48.42;;;;;;;39.86;16.13;100681.22;4790743;29;20051;-78
2022/08/22 09:05:33;;;;;;;55.78;46.78;;;;;;;40.61;16.32;100667.59;4812095;29;20424;-76
2022/08/22 09:08:36;;;;;;;58.85;48.28;;;;;;;40.37;16.23;100671.50;4783703;29;20428;-75
2022/08/22 09:11:11;;;;;;;50.28;41.60;;;;;;;39.89;16.47;100685.47;4814579;29;20050;-79
2022/08/22 09:13:56;;;;;;;46.42;39.67;;;;;;;40.51;16.09;100670.63;4813764;29;20066;-77
2022/08/22 09:16:58;;;;;;;51.70;41.75;;;;;;;41.06;15.14;100670.25;4760558;29;20063;-80
2022/08/22 09:19:56;;;;;;;50.85;45.30;;;;;;;41.16;15.53;100675.41;4770001;29;20059;-77
2022/08/22 09:22:51;;;;;;;53.83;46.60;;;;;;;41.57;15.11;100671.19;4781243;29;20054;-77
2022/08/22 09:25:26;;;;;;;60.60;44.38;;;;;;;41.95;14.95;100683.66;4782343;29;20055;-77
2022/08/22 09:28:10;;;;;;;50.63;43.72;;;;;;;41.63;15.49;100681.28;4813690;29;20051;-79
2022/08/22 09:30:53;;;;;;;56.58;45.28;;;;;;;43.05;14.29;100663.75;4796089;29;20142;-81
2022/08/22 09:33:23;;;;;;;54.97;43.83;;;;;;;43.54;14.07;100661.69;4811116;29;20074;-79
2022/08/22 09:36:01;;;;;;;47.35;41.05;;;;;;;43.10;14.27;100666.72;4810881;29;20043;-77
2022/08/22 09:38:46;;;;;;;42.05;32.65;;;;;;;41.55;14.97;100670.53;4795575;29;20047;-76
2022/08/22 09:41:28;;;;;;;40.75;31.63;;;;;;;40.27;15.24;100655.44;4795585;29;20539;-77
2022/08/22 09:44:28;;;;;;;44.13;35.45;;;;;;;38.98;16.35;100672.56;4811139;29;20407;-79
2022/08/22 09:47:07;;;;;;;44.35;35.83;;;;;;;38.34;16.94;100678.91;4799130;29;20070;-78
2022/08/22 09:50:02;;;;;;;44.53;35.30;;;;;;;38.12;17.47;100668.63;4785351;29;20047;-78
2022/08/22 09:53:06;;;;;;;45.63;35.10;;;;;;;37.73;18.06;100674.78;4813654;29;20061;-76
2022/08/22 09:55:43;;;;;;;36.47;31.77;;;;;;;38.31;18.09;100661.06;4787758;29;20047;-78
2022/08/22 09:58:24;;;;;;;34.70;29.15;;;;;;;40.15;17.13;100656.94;4802251;29;20047;-76
2022/08/22 10:01:15;;;;;;;28.30;23.27;;;;;;;41.52;15.52;100660.84;4787648;29;20424;-77
2022/08/22 10:03:44;;;;;;;34.53;24.55;;;;;;;41.43;15.70;100658.41;4815148;29;20043;-78
2022/08/22 10:06:19;;;;;;;30.15;24.70;;;;;;;40.84;15.91;100652.16;4814018;29;20047;-80
2022/08/22 10:09:02;;;;;;;37.17;27.48;;;;;;;40.33;16.11;100651.97;4799430;29;20047;-77
2022/08/22 10:11:38;;;;;;;29.17;25.20;;;;;;;40.45;15.67;100652.34;4813663;29;20131;-77
2022/08/22 10:14:17;;;;;;;29.23;24.30;;;;;;;40.62;16.13;100663.00;4784937;29;20050;-78
2022/08/22 10:17:20;;;;;;;35.03;28.58;;;;;;;41.04;15.33;100650.50;4785078;29;20150;-77
2022/08/22 10:19:57;;;;;;;31.17;24.65;;;;;;;41.04;15.39;100644.22;4785109;29;20102;-76
2022/08/22 10:22:55;;;;;;;24.35;16.05;;;;;;;40.93;15.27;100651.84;4774262;29;20050;-76
2022/08/22 10:25:53;;;;;;;19.23;14.68;;;;;;;40.39;15.52;100663.16;4772597;29;20204;-78
2022/08/22 10:28:42;;;;;;;21.13;16.60;;;;;;;39.82;15.96;100662.72;4785039;29;20048;-77
2022/08/22 10:31:42;;;;;;;28.23;16.55;;;;;;;40.55;15.31;100657.47;4765347;29;20047;-79
2022/08/22 10:34:19;;;;;;;25.88;17.67;;;;;;;40.17;15.39;100652.97;4785313;29;20074;-78
2022/08/22 10:37:04;;;;;;;25.50;20.83;;;;;;;39.55;16.14;100670.44;4764456;29;20066;-77
2022/08/22 10:40:03;;;;;;;32.05;23.10;;;;;;;38.68;16.52;100661.47;4798927;29;20416;-78
2022/08/22 10:42:29;;;;;;;32.22;23.08;;;;;;;37.88;17.49;100655.06;4767240;29;20058;-79
2022/08/22 10:45:19;;;;;;;34.40;24.75;;;;;;;37.18;17.93;100649.13;4784717;29;20039;-76
2022/08/22 10:47:57;;;;;;;30.00;24.23;;;;;;;36.34;19.23;100648.00;4785006;29;20205;-78
2022/08/22 10:50:36;;;;;;;29.52;22.13;;;;;;;35.84;19.76;100652.25;4783612;29;20095;-77
2022/08/22 10:56:16;;;;;;;30.00;21.30;;;;;;;34.41;20.79;100657.34;4798724;29;20059;-78
2022/08/22 10:59:23;;;;;;;30.83;23.73;;;;;;;34.51;20.76;100660.91;4760122;29;20051;-76
2022/08/22 11:02:13;;;;;;;33.42;25.27;;;;;;;34.66;20.67;100660.41;4760252;29;20055;-78
2022/08/22 11:05:17;;;;;;;28.95;20.55;;;;;;;34.39;21.05;100633.22;4770574;29;20059;-76
2022/08/22 11:07:54;;;;;;;29.67;20.42;;;;;;;34.26;21.33;100653.47;4783885;29;20051;-77
2022/08/22 11:10:38;;;;;;;24.73;19.77;;;;;;;33.87;21.55;100651.69;4785276;29;20511;-78
2022/08/22 11:13:07;;;;;;;27.05;19.55;;;;;;;33.57;21.52;100657.13;4783995;29;20051;-76
2022/08/22 11:15:59;;;;;;;26.83;20.65;;;;;;;33.36;22.51;100657.22;4801550;29;20067;-76
2022/08/22 11:18:40;;;;;;;29.73;21.65;;;;;;;33.21;22.26;100659.53;4782672;29;20071;-76
2022/08/22 11:21:23;;;;;;;34.90;24.10;;;;;;;32.86;22.70;100647.41;4813671;29;20096;-76
2022/08/22 11:24:18;;;;;;;27.73;22.70;;;;;;;32.71;23.63;100650.47;4784097;29;20053;-78
2022/08/22 11:27:00;;;;;;;32.22;22.88;;;;;;;32.60;23.40;100648.72;4785741;29;20120;-78
2022/08/22 11:29:47;;;;;;;30.05;21.13;;;;;;;32.59;24.21;100656.94;4813184;29;20129;-78
2022/08/22 11:32:35;;;;;;;27.05;19.30;;;;;;;32.35;23.53;100657.28;4785815;29;20127;-77
2022/08/22 11:35:16;;;;;;;27.13;18.88;;;;;;;32.26;24.09;100657.06;4814513;29;20076;-79
2022/08/22 11:37:51;;;;;;;26.73;18.75;;;;;;;32.28;23.73;100654.28;4816639;29;20050;-77
2022/08/22 11:40:50;;;;;;;27.48;18.77;;;;;;;32.38;23.88;100655.16;4788643;29;20043;-77
2022/08/22 11:43:35;;;;;;;24.42;16.33;;;;;;;32.29;24.06;100658.66;4803233;29;20082;-79
2022/08/22 11:46:28;;;;;;;18.75;13.77;;;;;;;31.85;24.47;100670.44;4784720;29;20058;-77
2022/08/22 11:48:54;;;;;;;17.38;11.98;;;;;;;31.57;24.79;100649.53;4812484;29;20055;-79
2022/08/22 11:51:29;;;;;;;17.02;11.80;;;;;;;31.42;24.58;100631.03;4818799;29;20050;-78
2022/08/22 11:54:41;;;;;;;15.48;11.65;;;;;;;31.51;24.92;100643.69;4784252;29;20039;-76
2022/08/22 11:57:10;;;;;;;16.15;11.40;;;;;;;31.62;24.59;100648.13;4812112;29;20633;-78
2022/08/22 11:59:41;;;;;;;12.52;7.75;;;;;;;31.57;24.51;100644.16;4783180;29;20054;-76
2022/08/22 12:02:22;;;;;;;13.27;7.13;;;;;;;31.38;24.19;100624.19;4797896;29;20062;-76
2022/08/22 12:05:01;;;;;;;16.90;7.22;;;;;;;31.50;24.74;100633.06;4803255;29;20134;-76
2022/08/22 12:07:38;;;;;;;12.73;6.43;;;;;;;31.63;24.30;100643.63;4817245;29;20051;-79
2022/08/22 12:10:27;;;;;;;14.07;5.05;;;;;;;31.40;24.59;100623.06;4788141;29;20043;-77
2022/08/22 12:13:03;;;;;;;9.95;4.95;;;;;;;31.34;24.40;100617.38;4785632;29;20063;-79
2022/08/22 12:15:48;;;;;;;6.45;3.90;;;;;;;31.24;24.49;100649.53;4809648;29;20059;-78
2022/08/22 12:19:04;;;;;;;5.18;3.25;;;;;;;31.01;24.39;100632.59;4813847;29;20493;-77
2022/08/22 12:21:54;;;;;;;6.05;3.13;;;;;;;30.95;24.40;100640.19;4797307;29;20054;-78
2022/08/22 12:24:23;;;;;;;7.05;2.75;;;;;;;31.00;24.03;100630.91;4801176;29;20842;-79
2022/08/22 12:27:17;;;;;;;8.90;3.28;;;;;;;30.97;24.38;100623.94;4793093;29;20047;-79